Time;durP1;ratioP1;P1;durP2;ratioP2;P2;SDS_P1;SDS_P2;PMS_P1;PMS_P2;Temp;Humidity;BMP_temperature;BMP_pressure;BME280_temperature;BME280_humidity;BME280_pressure;Samples;Min_cycle;Max_cycle;Signal;HPM_P1;HPM_P2
2022/07/31 00:05:52;;;;;;;25.52;14.05;;;;;;;;;;4874289;29;20160;-78
2022/07/31 00:08:18;;;;;;;31.33;15.90;;;;;;;;;;4862361;29;20526;-78
2022/07/31 00:10:44;;;;;;;22.55;14.57;;;;;;;;;;4879029;29;20049;-78
2022/07/31 00:13:10;;;;;;;36.55;15.68;;;;;;;;;;4878983;29;20045;-78
2022/07/31 00:15:36;;;;;;;30.02;13.80;;;;;;;;;;4878624;29;20490;-78
2022/07/31 00:18:01;;;;;;;24.70;14.52;;;;;;;;;;4879240;29;20044;-78
2022/07/31 00:20:27;;;;;;;29.40;14.98;;;;;;;;;;4877617;29;20044;-78
2022/07/31 00:22:53;;;;;;;27.38;15.25;;;;;;;;;;4878748;29;20053;-78
2022/07/31 00:25:19;;;;;;;24.63;14.60;;;;;;;;;;4878712;29;20056;-77
2022/07/31 00:27:46;;;;;;;24.92;15.30;;;;;;;;;;4861798;29;20647;-78
2022/07/31 00:30:12;;;;;;;30.92;14.75;;;;;;;;;;4878913;29;20568;-77
2022/07/31 00:32:38;;;;;;;29.75;13.95;;;;;;;;;;4878635;29;20417;-79
2022/07/31 00:35:05;;;;;;;22.05;14.65;;;;;;;;;;4878637;29;20598;-78
2022/07/31 00:37:33;;;;;;;22.70;14.18;;;;;;;;;;4861733;29;20075;-77
2022/07/31 00:39:59;;;;;;;22.05;14.48;;;;;;;;;;4878713;29;20101;-78
2022/07/31 00:42:25;;;;;;;21.58;14.88;;;;;;;;;;4878597;29;20061;-79
2022/07/31 00:44:51;;;;;;;29.42;16.13;;;;;;;;;;4878196;29;20045;-76
2022/07/31 00:47:17;;;;;;;27.48;15.10;;;;;;;;;;4878195;29;20057;-78
2022/07/31 00:49:43;;;;;;;29.00;15.63;;;;;;;;;;4885907;29;20122;-76
2022/07/31 00:52:10;;;;;;;20.70;14.25;;;;;;;;;;4897390;29;20076;-78
2022/07/31 00:54:36;;;;;;;21.70;15.15;;;;;;;;;;4878546;29;20052;-79
2022/07/31 00:57:02;;;;;;;27.75;14.85;;;;;;;;;;4878586;29;20057;-78
2022/07/31 00:59:28;;;;;;;23.67;13.95;;;;;;;;;;4878422;29;20057;-78
2022/07/31 01:01:54;;;;;;;25.95;14.20;;;;;;;;;;4877903;29;20081;-78
2022/07/31 01:04:20;;;;;;;20.75;14.00;;;;;;;;;;4878253;29;20068;-78
2022/07/31 01:06:46;;;;;;;33.10;16.13;;;;;;;;;;4860797;29;20135;-75
2022/07/31 01:09:15;;;;;;;34.72;17.33;;;;;;;;;;4877979;29;20041;-78
2022/07/31 01:11:47;;;;;;;31.63;15.93;;;;;;;;;;4877652;29;20611;-78
2022/07/31 01:14:13;;;;;;;32.00;16.55;;;;;;;;;;4878090;29;20049;-80
2022/07/31 01:16:40;;;;;;;31.83;16.35;;;;;;;;;;4861121;29;20487;-78
2022/07/31 01:19:25;;;;;;;26.98;14.98;;;;;;;;;;4861458;29;20049;-78
2022/07/31 01:22:09;;;;;;;25.90;14.68;;;;;;;;;;4845497;29;20044;-79
2022/07/31 01:24:47;;;;;;;26.05;15.23;;;;;;;;;;4860940;29;20068;-78
2022/07/31 01:27:31;;;;;;;24.38;13.77;;;;;;;;;;4860996;29;20095;-76
2022/07/31 01:29:58;;;;;;;31.75;15.25;;;;;;;;;;4861210;29;20466;-77
2022/07/31 01:32:28;;;;;;;22.70;13.00;;;;;;;;;;4862852;29;20037;-78
2022/07/31 01:35:02;;;;;;;26.25;12.85;;;;;;;;;;4871053;29;20127;-78
2022/07/31 01:37:29;;;;;;;19.75;11.55;;;;;;;;;;4863752;29;20087;-77
2022/07/31 01:40:04;;;;;;;21.52;11.13;;;;;;;;;;4861641;29;20086;-78
2022/07/31 01:42:31;;;;;;;15.50;10.93;;;;;;;;;;4846000;29;20041;-77
2022/07/31 01:44:58;;;;;;;16.42;11.00;;;;;;;;;;4877497;29;20131;-78
2022/07/31 01:47:24;;;;;;;15.70;11.38;;;;;;;;;;4877561;29;20529;-77
2022/07/31 01:49:50;;;;;;;21.13;11.63;;;;;;;;;;4860381;29;20048;-78
2022/07/31 01:52:19;;;;;;;26.77;11.23;;;;;;;;;;4846501;29;20056;-77
2022/07/31 01:54:45;;;;;;;15.38;10.32;;;;;;;;;;4860956;29;20525;-78
2022/07/31 01:57:11;;;;;;;20.40;11.40;;;;;;;;;;4860753;29;20056;-78
2022/07/31 01:59:40;;;;;;;29.55;13.65;;;;;;;;;;4843974;29;20462;-78
2022/07/31 02:02:29;;;;;;;26.73;15.23;;;;;;;;;;4877130;29;20104;-78
2022/07/31 02:04:55;;;;;;;37.40;15.80;;;;;;;;;;4860031;29;20049;-77
2022/07/31 02:07:21;;;;;;;31.23;16.33;;;;;;;;;;4860557;29;20057;-77
2022/07/31 02:09:47;;;;;;;35.90;17.73;;;;;;;;;;4860300;29;20047;-77
2022/07/31 02:12:13;;;;;;;35.70;16.75;;;;;;;;;;4860378;29;20429;-77
2022/07/31 02:15:00;;;;;;;42.58;17.33;;;;;;;;;;4850164;29;20049;-78
2022/07/31 02:17:26;;;;;;;28.52;16.67;;;;;;;;;;4876937;29;20553;-76
2022/07/31 02:20:11;;;;;;;38.65;16.55;;;;;;;;;;4863004;29;20060;-78
2022/07/31 02:22:37;;;;;;;31.15;16.27;;;;;;;;;;4860772;29;20120;-76
2022/07/31 02:25:03;;;;;;;23.88;13.30;;;;;;;;;;4860515;29;20048;-78
2022/07/31 02:27:29;;;;;;;19.42;11.65;;;;;;;;;;4829687;29;20130;-77
2022/07/31 02:29:56;;;;;;;25.02;11.13;;;;;;;;;;4859677;29;20044;-76
2022/07/31 02:32:22;;;;;;;23.73;11.77;;;;;;;;;;4876806;29;20073;-76
2022/07/31 02:34:47;;;;;;;34.03;14.73;;;;;;;;;;4859895;29;20136;-75
2022/07/31 02:37:14;;;;;;;24.75;13.35;;;;;;;;;;4860100;29;20057;-78
2022/07/31 02:39:40;;;;;;;32.65;13.50;;;;;;;;;;4860078;29;20548;-79
2022/07/31 02:42:06;;;;;;;27.25;12.10;;;;;;;;;;4860371;29;20064;-77
2022/07/31 02:44:33;;;;;;;24.00;11.23;;;;;;;;;;4872181;29;20057;-77
2022/07/31 02:47:01;;;;;;;12.18;8.52;;;;;;;;;;4867255;29;20113;-78
2022/07/31 02:49:28;;;;;;;18.75;8.45;;;;;;;;;;4845656;29;20067;-77
2022/07/31 02:51:55;;;;;;;14.55;8.88;;;;;;;;;;4859545;29;20105;-78
2022/07/31 02:54:23;;;;;;;24.52;11.70;;;;;;;;;;4859804;29;20044;-79
2022/07/31 02:56:49;;;;;;;19.40;9.40;;;;;;;;;;4859839;29;20061;-79
2022/07/31 02:59:15;;;;;;;15.20;8.18;;;;;;;;;;4844501;29;20591;-77
2022/07/31 03:01:56;;;;;;;;;;;;;;;;;;4859795;29;20109;-76
2022/07/31 03:04:22;;;;;;;14.75;8.25;;;;;;;;;;4859529;29;19925;-77
2022/07/31 03:06:49;;;;;;;18.25;8.57;;;;;;;;;;4875624;29;20056;-76
2022/07/31 03:09:15;;;;;;;21.27;8.65;;;;;;;;;;4859478;29;20049;-78
2022/07/31 03:11:42;;;;;;;14.13;8.32;;;;;;;;;;4858993;29;20052;-78
2022/07/31 03:14:12;;;;;;;12.68;7.95;;;;;;;;;;4876292;29;20192;-79
2022/07/31 03:16:38;;;;;;;12.38;8.60;;;;;;;;;;4844295;29;20041;-78
2022/07/31 03:19:04;;;;;;;15.82;7.43;;;;;;;;;;4875958;29;20087;-78
2022/07/31 03:21:30;;;;;;;17.60;8.90;;;;;;;;;;4875771;29;20090;-78
2022/07/31 03:23:56;;;;;;;14.45;8.82;;;;;;;;;;4843723;29;20053;-78
2022/07/31 03:26:22;;;;;;;15.50;8.50;;;;;;;;;;4843894;29;20152;-78
2022/07/31 03:28:48;;;;;;;14.48;9.43;;;;;;;;;;4875659;29;20162;-77
2022/07/31 03:31:14;;;;;;;15.43;8.45;;;;;;;;;;4843643;29;20045;-79
2022/07/31 03:33:41;;;;;;;11.80;8.52;;;;;;;;;;4875739;29;20056;-78
2022/07/31 03:36:11;;;;;;;18.65;8.80;;;;;;;;;;4844075;29;20055;-78
2022/07/31 03:38:37;;;;;;;15.27;9.23;;;;;;;;;;4859408;29;20136;-78
2022/07/31 03:41:04;;;;;;;20.42;10.07;;;;;;;;;;4858868;29;20292;-78
2022/07/31 03:43:30;;;;;;;14.02;8.90;;;;;;;;;;4875841;29;20049;-79
2022/07/31 03:45:59;;;;;;;18.90;9.32;;;;;;;;;;4843536;29;20082;-77
2022/07/31 03:48:25;;;;;;;18.55;9.27;;;;;;;;;;4859095;29;20438;-76
2022/07/31 03:50:52;;;;;;;14.68;9.57;;;;;;;;;;4843533;29;20045;-77
2022/07/31 03:53:18;;;;;;;12.10;9.95;;;;;;;;;;4875878;29;20125;-77
2022/07/31 03:55:44;;;;;;;16.60;9.50;;;;;;;;;;4858757;29;20078;-78
2022/07/31 03:58:10;;;;;;;14.82;10.13;;;;;;;;;;4859086;29;20118;-77
2022/07/31 04:00:37;;;;;;;12.85;9.65;;;;;;;;;;4843408;29;20044;-78
2022/07/31 04:03:04;;;;;;;16.40;10.25;;;;;;;;;;4858940;29;20524;-78
2022/07/31 04:05:38;;;;;;;12.30;10.02;;;;;;;;;;4874101;29;20057;-77
2022/07/31 04:08:05;;;;;;;17.13;10.50;;;;;;;;;;4875393;29;20060;-77
2022/07/31 04:10:31;;;;;;;11.00;9.90;;;;;;;;;;4874392;29;20033;-78
2022/07/31 04:12:57;;;;;;;16.25;9.77;;;;;;;;;;4875589;29;20085;-78
2022/07/31 04:15:23;;;;;;;24.45;9.98;;;;;;;;;;4843618;29;20506;-77
2022/07/31 04:17:50;;;;;;;17.95;9.57;;;;;;;;;;4858760;29;20517;-78
2022/07/31 04:20:22;;;;;;;16.30;9.38;;;;;;;;;;4859112;29;20128;-80
2022/07/31 04:22:48;;;;;;;18.38;9.70;;;;;;;;;;4877334;29;20143;-80
2022/07/31 04:25:22;;;;;;;12.27;9.45;;;;;;;;;;4862293;29;20087;-79
2022/07/31 04:28:07;;;;;;;10.82;9.20;;;;;;;;;;4862163;29;20664;-78
2022/07/31 04:30:33;;;;;;;13.18;9.73;;;;;;;;;;4859114;29;20045;-78
2022/07/31 04:33:00;;;;;;;13.50;9.48;;;;;;;;;;4862116;29;20495;-79
2022/07/31 04:35:26;;;;;;;17.52;9.43;;;;;;;;;;4862967;29;20065;-78
2022/07/31 04:37:53;;;;;;;11.23;8.35;;;;;;;;;;4886123;29;20061;-79
2022/07/31 04:40:21;;;;;;;11.77;9.25;;;;;;;;;;4886148;29;20044;-80
2022/07/31 04:42:47;;;;;;;10.13;8.48;;;;;;;;;;4874181;29;20052;-78
2022/07/31 04:45:13;;;;;;;13.80;9.27;;;;;;;;;;4890899;29;20033;-79
2022/07/31 04:47:40;;;;;;;15.93;9.63;;;;;;;;;;4884722;29;20069;-79
2022/07/31 04:50:06;;;;;;;10.07;8.35;;;;;;;;;;4878715;29;20472;-80
2022/07/31 04:52:33;;;;;;;12.15;8.82;;;;;;;;;;4878428;29;20079;-79
2022/07/31 04:55:05;;;;;;;15.70;8.32;;;;;;;;;;4861789;29;20132;-78
2022/07/31 04:57:31;;;;;;;9.93;8.90;;;;;;;;;;4878358;29;20101;-78
2022/07/31 04:59:57;;;;;;;12.93;8.02;;;;;;;;;;4861697;29;20037;-78
2022/07/31 05:02:23;;;;;;;19.98;9.15;;;;;;;;;;4861687;29;20084;-77
2022/07/31 05:04:49;;;;;;;14.98;8.30;;;;;;;;;;4861367;29;20056;-79
2022/07/31 05:07:15;;;;;;;15.73;9.45;;;;;;;;;;4861495;29;20076;-78
2022/07/31 05:09:41;;;;;;;11.68;7.63;;;;;;;;;;4846258;29;20049;-79
2022/07/31 05:12:07;;;;;;;19.73;9.15;;;;;;;;;;4876608;29;20433;-77
2022/07/31 05:14:34;;;;;;;17.38;8.57;;;;;;;;;;4878201;29;20131;-79
2022/07/31 05:17:00;;;;;;;16.02;8.80;;;;;;;;;;4860961;29;20049;-79
2022/07/31 05:19:37;;;;;;;20.10;9.30;;;;;;;;;;4861375;29;20056;-79
2022/07/31 05:22:26;;;;;;;11.07;8.10;;;;;;;;;;4861115;29;20052;-79
2022/07/31 05:25:16;;;;;;;11.65;7.95;;;;;;;;;;4870356;29;20448;-79
2022/07/31 05:27:42;;;;;;;11.85;8.10;;;;;;;;;;4860970;29;20148;-79
2022/07/31 05:30:09;;;;;;;14.85;7.88;;;;;;;;;;4861056;29;20048;-80
2022/07/31 05:32:36;;;;;;;11.70;7.50;;;;;;;;;;4860791;29;20434;-78
2022/07/31 05:35:02;;;;;;;10.98;7.25;;;;;;;;;;4860316;29;20518;-78
2022/07/31 05:37:29;;;;;;;8.25;6.90;;;;;;;;;;4877373;29;20638;-78
2022/07/31 05:39:57;;;;;;;11.48;7.03;;;;;;;;;;4860732;29;20154;-78
2022/07/31 05:42:47;;;;;;;5.57;2.72;;;;;;;;;;4842293;29;20124;-79
2022/07/31 05:45:31;;;;;;;7.70;3.13;;;;;;;;;;4876297;29;20041;-79
2022/07/31 05:47:57;;;;;;;3.58;3.00;;;;;;;;;;4875970;29;20053;-78
2022/07/31 05:50:23;;;;;;;3.72;3.35;;;;;;;;;;4845390;29;20538;-79
2022/07/31 05:52:48;;;;;;;5.57;3.15;;;;;;;;;;4860271;29;20131;-80
2022/07/31 05:55:56;;;;;;;7.63;3.42;;;;;;;;;;4830230;29;20587;-79
2022/07/31 05:58:49;;;;;;;6.93;3.50;;;;;;;;;;4876264;29;20105;-79
2022/07/31 06:01:15;;;;;;;8.10;3.00;;;;;;;;;;4877359;29;20661;-81
2022/07/31 06:03:42;;;;;;;3.70;3.35;;;;;;;;;;4860676;29;20049;-79
2022/07/31 06:06:16;;;;;;;5.90;3.17;;;;;;;;;;4860147;29;20147;-80
2022/07/31 06:08:42;;;;;;;4.22;2.67;;;;;;;;;;4860418;29;20096;-79
2022/07/31 06:11:09;;;;;;;4.07;3.00;;;;;;;;;;4859787;29;20037;-80
2022/07/31 06:13:36;;;;;;;2.47;2.38;;;;;;;;;;4875788;29;20049;-79
2022/07/31 06:16:14;;;;;;;3.22;2.92;;;;;;;;;;4861670;29;20072;-79
2022/07/31 06:18:40;;;;;;;2.90;2.70;;;;;;;;;;4860243;29;20101;-80
2022/07/31 06:21:06;;;;;;;2.97;2.78;;;;;;;;;;4875354;29;20109;-79
2022/07/31 06:23:32;;;;;;;3.88;3.10;;;;;;;;;;4860111;29;20125;-79
2022/07/31 06:26:05;;;;;;;5.30;3.55;;;;;;;;;;4860100;29;20041;-78
2022/07/31 06:28:31;;;;;;;4.03;3.63;;;;;;;;;;4876765;29;20061;-79
2022/07/31 06:30:57;;;;;;;7.55;3.47;;;;;;;;;;4870029;29;20055;-79
2022/07/31 06:33:24;;;;;;;5.22;3.10;;;;;;;;;;4869144;29;20075;-79
2022/07/31 06:35:50;;;;;;;3.63;3.33;;;;;;;;;;4844903;29;20518;-78
2022/07/31 06:38:36;;;;;;;2.75;2.55;;;;;;;;;;4877070;29;20045;-79
2022/07/31 06:44:23;;;;;;;6.20;2.40;;;;;;;;;;4876309;29;20060;-80
2022/07/31 06:47:12;;;;;;;3.00;2.72;;;;;;;;;;4849175;29;20061;-78
2022/07/31 06:49:56;;;;;;;3.05;2.47;;;;;;;;;;4876058;29;20041;-78
2022/07/31 06:52:26;;;;;;;6.38;2.80;;;;;;;;;;4875111;29;20132;-79
2022/07/31 06:54:52;;;;;;;3.30;3.10;;;;;;;;;;4874847;29;20061;-79
2022/07/31 06:57:18;;;;;;;4.38;2.33;;;;;;;;;;4876303;29;20076;-79
2022/07/31 06:59:45;;;;;;;2.70;2.42;;;;;;;;;;4859603;29;20044;-78
2022/07/31 07:02:39;;;;;;;4.38;2.42;;;;;;;;;;4858990;29;20533;-78
2022/07/31 07:05:07;;;;;;;2.70;2.50;;;;;;;;;;4859161;29;20072;-78
2022/07/31 07:07:34;;;;;;;5.38;2.40;;;;;;;;;;4859275;29;20083;-79
2022/07/31 07:10:00;;;;;;;3.80;2.28;;;;;;;;;;4859385;29;20048;-79
2022/07/31 07:12:44;;;;;;;2.20;1.75;;;;;;;;;;4876217;29;20538;-80
2022/07/31 07:15:10;;;;;;;2.88;2.60;;;;;;;;;;4859307;29;20045;-80
2022/07/31 07:17:37;;;;;;;5.82;2.13;;;;;;;;;;4875677;29;20045;-79
2022/07/31 07:20:08;;;;;;;4.95;2.55;;;;;;;;;;4859414;29;20404;-79
2022/07/31 07:22:34;;;;;;;2.90;2.70;;;;;;;;;;4874576;29;20140;-80
2022/07/31 07:25:01;;;;;;;2.45;2.28;;;;;;;;;;4874593;29;20078;-79
2022/07/31 07:27:29;;;;;;;2.83;2.20;;;;;;;;;;4874423;29;20057;-78
2022/07/31 07:29:55;;;;;;;2.92;2.30;;;;;;;;;;4859086;29;20037;-78
2022/07/31 07:32:21;;;;;;;3.65;2.30;;;;;;;;;;4874680;29;20065;-79
2022/07/31 07:34:47;;;;;;;2.25;2.10;;;;;;;;;;4859474;29;20049;-76
2022/07/31 07:37:32;;;;;;;2.97;1.83;;;;;;;;;;4874741;29;20090;-79
2022/07/31 07:39:58;;;;;;;2.42;2.20;;;;;;;;;;4859440;29;20132;-78
2022/07/31 07:42:24;;;;;;;2.40;2.10;;;;;;;;;;4874835;29;20049;-79
2022/07/31 07:44:50;;;;;;;5.45;2.15;;;;;;;;;;4860173;29;20057;-79
2022/07/31 07:47:17;;;;;;;7.25;1.95;;;;;;;;;;4880315;29;20081;-79
2022/07/31 07:49:42;;;;;;;2.53;1.92;;;;;;;;;;4888669;29;20049;-77
2022/07/31 07:52:29;;;;;;;2.30;2.10;;;;;;;;;;4845628;29;20140;-77
2022/07/31 07:55:00;;;;;;;3.42;2.20;;;;;;;;;;4874640;29;20045;-79
2022/07/31 07:57:46;;;;;;;2.88;2.15;;;;;;;;;;4857481;29;20113;-79
2022/07/31 08:00:31;;;;;;;2.58;2.15;;;;;;;;;;4865395;29;20086;-79
2022/07/31 08:03:01;;;;;;;2.42;2.22;;;;;;;;;;4879226;29;20048;-79
2022/07/31 08:05:27;;;;;;;2.38;1.90;;;;;;;;;;4874645;29;20132;-78
2022/07/31 08:07:53;;;;;;;2.60;2.40;;;;;;;;;;4859132;29;20407;-78
2022/07/31 08:10:42;;;;;;;2.75;2.10;;;;;;;;;;4852771;29;20475;-80
2022/07/31 08:13:28;;;;;;;5.10;2.63;;;;;;;;;;4860311;29;20148;-77
2022/07/31 08:15:54;;;;;;;2.55;2.30;;;;;;;;;;4860532;29;20152;-79
2022/07/31 08:18:30;;;;;;;7.47;2.85;;;;;;;;;;4843958;29;20049;-79
2022/07/31 08:20:56;;;;;;;4.10;2.78;;;;;;;;;;4875369;29;20053;-79
2022/07/31 08:23:22;;;;;;;4.25;2.13;;;;;;;;;;4851308;29;20054;-79
2022/07/31 08:25:49;;;;;;;2.88;2.40;;;;;;;;;;4850944;29;20084;-78
2022/07/31 08:28:15;;;;;;;5.20;2.72;;;;;;;;;;4860197;29;20057;-78
2022/07/31 08:30:41;;;;;;;2.65;2.33;;;;;;;;;;4843898;29;20034;-78
2022/07/31 08:33:07;;;;;;;2.47;2.33;;;;;;;;;;4843686;29;20057;-79
2022/07/31 08:35:51;;;;;;;2.70;2.20;;;;;;;;;;4845948;29;20178;-78
2022/07/31 08:38:19;;;;;;;7.80;2.30;;;;;;;;;;4843323;29;20061;-77
2022/07/31 08:41:00;;;;;;;4.55;2.33;;;;;;;;;;4858199;29;20045;-79
2022/07/31 08:43:26;;;;;;;3.15;2.50;;;;;;;;;;4843063;29;20045;-78
2022/07/31 08:45:52;;;;;;;3.63;2.47;;;;;;;;;;4843496;29;20045;-77
2022/07/31 08:48:24;;;;;;;3.15;2.28;;;;;;;;;;4843407;29;20066;-79
2022/07/31 08:50:52;;;;;;;4.45;2.47;;;;;;;;;;4858502;29;20450;-78
2022/07/31 08:53:52;;;;;;;2.75;2.20;;;;;;;;;;4860078;29;20057;-79
2022/07/31 08:56:19;;;;;;;3.42;2.47;;;;;;;;;;4859511;29;20048;-79
2022/07/31 08:58:45;;;;;;;5.80;2.35;;;;;;;;;;4874045;29;20053;-78
2022/07/31 09:01:12;;;;;;;2.40;2.20;;;;;;;;;;4842868;29;20056;-77
2022/07/31 09:03:38;;;;;;;2.25;2.15;;;;;;;;;;4842976;29;20082;-78
2022/07/31 09:06:05;;;;;;;5.65;2.50;;;;;;;;;;4854604;29;20132;-79
2022/07/31 09:08:31;;;;;;;4.93;2.75;;;;;;;;;;4860856;29;20116;-79
2022/07/31 09:11:04;;;;;;;4.05;2.40;;;;;;;;;;4877000;29;20522;-80
2022/07/31 09:13:31;;;;;;;4.85;2.50;;;;;;;;;;4861172;29;20131;-78
2022/07/31 09:15:59;;;;;;;4.63;2.42;;;;;;;;;;4861843;29;20101;-80
2022/07/31 09:18:27;;;;;;;4.03;2.47;;;;;;;;;;4861184;29;20073;-78
2022/07/31 09:21:04;;;;;;;4.65;2.45;;;;;;;;;;4861384;29;20147;-79
2022/07/31 09:23:31;;;;;;;3.40;2.58;;;;;;;;;;4860866;29;20041;-79
2022/07/31 09:25:59;;;;;;;3.95;2.60;;;;;;;;;;4876702;29;20462;-78
2022/07/31 09:28:35;;;;;;;2.80;2.35;;;;;;;;;;4877711;29;20053;-79
2022/07/31 09:31:02;;;;;;;2.72;2.25;;;;;;;;;;4876412;29;20156;-79
2022/07/31 09:33:46;;;;;;;2.70;2.50;;;;;;;;;;4863691;29;20072;-79
2022/07/31 09:36:25;;;;;;;2.60;2.40;;;;;;;;;;4877464;29;20426;-79
2022/07/31 09:38:58;;;;;;;15.93;2.70;;;;;;;;;;4862163;29;20502;-79
2022/07/31 09:41:30;;;;;;;3.60;2.47;;;;;;;;;;4877737;29;20049;-79
2022/07/31 09:43:59;;;;;;;4.32;2.63;;;;;;;;;;4877659;29;20466;-79
2022/07/31 09:46:26;;;;;;;2.72;2.53;;;;;;;;;;4877066;29;20073;-80
2022/07/31 09:48:54;;;;;;;4.20;2.88;;;;;;;;;;4845528;29;20052;-79
2022/07/31 09:51:20;;;;;;;3.30;2.53;;;;;;;;;;4876152;29;20426;-79
2022/07/31 09:53:49;;;;;;;3.08;2.50;;;;;;;;;;4860540;29;20048;-79
2022/07/31 09:56:33;;;;;;;2.97;2.70;;;;;;;;;;4877046;29;20052;-78
2022/07/31 09:58:59;;;;;;;2.97;2.60;;;;;;;;;;4860711;29;20498;-79
2022/07/31 10:01:25;;;;;;;2.58;2.38;;;;;;;;;;4860223;29;20045;-77
2022/07/31 10:03:52;;;;;;;3.72;2.80;;;;;;;;;;4875923;29;20080;-78
2022/07/31 10:06:19;;;;;;;5.18;2.80;;;;;;;;;;4860220;29;20052;-79
2022/07/31 10:08:45;;;;;;;4.10;2.55;;;;;;;;;;4860768;29;20080;-79
2022/07/31 10:11:32;;;;;;;3.92;2.63;;;;;;;;;;4876855;29;20055;-80
2022/07/31 10:14:14;;;;;;;4.30;2.55;;;;;;;;;;4876729;29;20541;-79
2022/07/31 10:16:40;;;;;;;3.05;2.75;;;;;;;;;;4874573;29;20049;-78
2022/07/31 10:19:26;;;;;;;4.60;2.70;;;;;;;;;;4877729;29;20190;-78
2022/07/31 10:22:08;;;;;;;4.40;2.80;;;;;;;;;;4862688;29;20124;-80
2022/07/31 10:24:39;;;;;;;3.35;2.63;;;;;;;;;;4877310;29;20052;-79
2022/07/31 10:27:04;;;;;;;4.93;2.58;;;;;;;;;;4875311;29;20060;-80
2022/07/31 10:29:30;;;;;;;4.97;2.45;;;;;;;;;;4875564;29;20045;-78
2022/07/31 10:31:56;;;;;;;3.58;2.45;;;;;;;;;;4875489;29;20045;-78
2022/07/31 10:34:22;;;;;;;8.43;2.60;;;;;;;;;;4875396;29;20056;-79
2022/07/31 10:37:08;;;;;;;4.55;2.70;;;;;;;;;;4876859;29;20124;-78
2022/07/31 10:39:57;;;;;;;2.78;2.60;;;;;;;;;;4862619;29;20546;-79
2022/07/31 10:42:34;;;;;;;3.45;2.30;;;;;;;;;;4860050;29;20049;-78
2022/07/31 10:45:05;;;;;;;4.43;2.40;;;;;;;;;;4877198;29;20040;-77
2022/07/31 10:47:56;;;;;;;3.13;2.10;;;;;;;;;;4877636;29;20061;-78
2022/07/31 10:50:41;;;;;;;2.38;2.17;;;;;;;;;;4883510;29;20041;-79
2022/07/31 10:53:37;;;;;;;2.40;2.20;;;;;;;;;;4869554;29;20060;-80
2022/07/31 10:56:09;;;;;;;;;;;;;;;;;;4863626;29;20204;-79
2022/07/31 10:58:55;;;;;;;2.97;2.25;;;;;;;;;;4876550;29;19919;-79
2022/07/31 11:01:46;;;;;;;4.82;2.25;;;;;;;;;;4877007;29;20123;-79
2022/07/31 11:04:31;;;;;;;4.43;2.40;;;;;;;;;;4877029;29;20096;-78
2022/07/31 11:07:18;;;;;;;3.33;2.35;;;;;;;;;;4858778;29;20061;-79
2022/07/31 11:10:17;;;;;;;2.55;2.00;;;;;;;;;;4862478;29;20132;-78
2022/07/31 11:13:06;;;;;;;4.63;2.20;;;;;;;;;;4875626;29;20060;-80
2022/07/31 11:16:02;;;;;;;3.95;2.30;;;;;;;;;;4875603;29;20045;-79
2022/07/31 11:18:57;;;;;;;2.67;2.30;;;;;;;;;;4858857;29;20068;-80
2022/07/31 11:21:31;;;;;;;11.52;2.30;;;;;;;;;;4859000;29;20041;-78
2022/07/31 11:23:57;;;;;;;5.22;2.20;;;;;;;;;;4874723;29;20045;-79
2022/07/31 11:26:23;;;;;;;2.30;2.20;;;;;;;;;;4875667;29;20048;-78
2022/07/31 11:28:49;;;;;;;2.42;1.92;;;;;;;;;;4859279;29;20068;-77
2022/07/31 11:31:15;;;;;;;4.55;2.08;;;;;;;;;;4877163;29;20052;-79
2022/07/31 11:33:42;;;;;;;4.03;2.00;;;;;;;;;;4879682;29;20049;-78
2022/07/31 11:36:13;;;;;;;2.50;2.30;;;;;;;;;;4879888;29;21003;-80
2022/07/31 11:38:40;;;;;;;2.38;2.17;;;;;;;;;;4879427;29;20045;-79
2022/07/31 11:41:06;;;;;;;1.95;1.85;;;;;;;;;;4862643;29;20574;-78
2022/07/31 11:43:33;;;;;;;3.22;2.20;;;;;;;;;;4878978;29;20514;-79
2022/07/31 11:45:59;;;;;;;1.98;1.88;;;;;;;;;;4862753;29;20065;-79
2022/07/31 11:48:25;;;;;;;7.20;2.00;;;;;;;;;;4879126;29;20057;-80
2022/07/31 11:50:51;;;;;;;2.15;1.95;;;;;;;;;;4878913;29;20490;-79
2022/07/31 11:53:18;;;;;;;2.78;2.25;;;;;;;;;;4862152;29;20072;-79
2022/07/31 11:55:50;;;;;;;2.28;1.90;;;;;;;;;;4878949;29;20041;-79
2022/07/31 11:58:18;;;;;;;5.97;1.90;;;;;;;;;;4862219;29;20060;-79
2022/07/31 12:00:50;;;;;;;2.17;2.00;;;;;;;;;;4862397;29;20109;-80
2022/07/31 12:03:17;;;;;;;5.88;2.40;;;;;;;;;;4862433;29;20049;-80
2022/07/31 12:05:43;;;;;;;3.20;2.15;;;;;;;;;;4880283;29;20500;-79
2022/07/31 12:08:10;;;;;;;12.88;9.07;;;;;;;;;;4876322;29;20052;-79
2022/07/31 12:10:35;;;;;;;5.65;4.55;;;;;;;;;;4881374;29;20045;-80
2022/07/31 12:13:01;;;;;;;7.85;2.95;;;;;;;;;;4879225;29;20056;-80
2022/07/31 12:15:27;;;;;;;4.75;2.10;;;;;;;;;;4878900;29;20052;-80
2022/07/31 12:18:03;;;;;;;3.30;2.40;;;;;;;;;;4879154;29;20063;-78
2022/07/31 12:20:30;;;;;;;4.57;2.15;;;;;;;;;;4878957;29;20415;-79
2022/07/31 12:22:57;;;;;;;2.08;1.88;;;;;;;;;;4878844;29;20052;-79
2022/07/31 12:25:23;;;;;;;3.25;1.90;;;;;;;;;;4878924;29;20045;-79
2022/07/31 12:27:52;;;;;;;3.83;1.98;;;;;;;;;;4878802;29;20071;-80
2022/07/31 12:30:19;;;;;;;2.03;1.92;;;;;;;;;;4878452;29;20068;-79
2022/07/31 12:32:44;;;;;;;1.98;1.73;;;;;;;;;;4862414;29;20516;-79
2022/07/31 12:35:10;;;;;;;6.38;2.00;;;;;;;;;;4862375;29;20052;-79
2022/07/31 12:37:46;;;;;;;1.92;1.83;;;;;;;;;;4861881;29;20064;-81
2022/07/31 12:40:22;;;;;;;3.85;2.10;;;;;;;;;;4878780;29;20053;-80
2022/07/31 12:42:48;;;;;;;5.15;2.03;;;;;;;;;;4877924;29;20320;-80
2022/07/31 12:45:14;;;;;;;1.70;1.60;;;;;;;;;;4861921;29;20052;-80
2022/07/31 12:47:39;;;;;;;1.92;1.80;;;;;;;;;;4861494;29;20479;-79
2022/07/31 12:50:06;;;;;;;2.30;2.10;;;;;;;;;;4862028;29;20041;-80
2022/07/31 12:52:33;;;;;;;2.30;2.10;;;;;;;;;;4876951;29;20073;-79
2022/07/31 12:55:00;;;;;;;2.92;1.90;;;;;;;;;;4861764;29;20060;-78
2022/07/31 12:57:27;;;;;;;4.85;2.03;;;;;;;;;;4861361;29;20101;-80
2022/07/31 12:59:53;;;;;;;2.78;2.58;;;;;;;;;;4877435;29;20045;-80
2022/07/31 13:02:19;;;;;;;2.00;1.90;;;;;;;;;;4878139;29;20114;-80
2022/07/31 13:04:45;;;;;;;1.90;1.80;;;;;;;;;;4878069;29;20104;-79
2022/07/31 13:07:11;;;;;;;6.05;2.22;;;;;;;;;;4861572;29;20057;-79
2022/07/31 13:09:37;;;;;;;9.40;2.40;;;;;;;;;;4877879;29;20045;-80
2022/07/31 13:12:03;;;;;;;2.70;2.50;;;;;;;;;;4878089;29;20048;-80
2022/07/31 13:14:28;;;;;;;3.63;2.33;;;;;;;;;;4877849;29;20037;-79
2022/07/31 13:16:56;;;;;;;2.03;1.92;;;;;;;;;;4878177;29;20636;-80
2022/07/31 13:19:22;;;;;;;2.50;2.08;;;;;;;;;;4877790;29;20069;-79
2022/07/31 13:21:50;;;;;;;2.75;2.30;;;;;;;;;;4877923;29;20048;-79
2022/07/31 13:24:17;;;;;;;5.95;2.38;;;;;;;;;;4877781;29;20077;-80
2022/07/31 13:26:44;;;;;;;4.68;2.70;;;;;;;;;;4877875;29;20041;-80
2022/07/31 13:29:09;;;;;;;4.50;2.28;;;;;;;;;;4877972;29;20041;-79
2022/07/31 13:31:35;;;;;;;3.28;2.63;;;;;;;;;;4861071;29;20056;-80
2022/07/31 13:34:01;;;;;;;2.90;2.33;;;;;;;;;;4877973;29;20531;-78
2022/07/31 13:36:28;;;;;;;2.67;2.28;;;;;;;;;;4877620;29;20506;-79
2022/07/31 13:38:53;;;;;;;2.88;2.28;;;;;;;;;;4877546;29;20056;-79
2022/07/31 13:41:19;;;;;;;2.95;2.75;;;;;;;;;;4877535;29;20528;-79
2022/07/31 13:43:45;;;;;;;2.92;2.35;;;;;;;;;;4877476;29;20044;-79
2022/07/31 13:46:11;;;;;;;5.63;3.25;;;;;;;;;;4877651;29;20078;-79
2022/07/31 13:48:37;;;;;;;5.45;2.78;;;;;;;;;;4877651;29;20144;-79
2022/07/31 13:51:03;;;;;;;4.25;2.22;;;;;;;;;;4861828;29;20045;-80
2022/07/31 13:53:29;;;;;;;2.50;2.30;;;;;;;;;;4887854;29;20078;-79
2022/07/31 13:55:57;;;;;;;5.68;2.17;;;;;;;;;;4887290;29;20514;-77
2022/07/31 13:58:25;;;;;;;2.40;2.20;;;;;;;;;;4887807;29;20087;-79
2022/07/31 14:00:55;;;;;;;2.25;1.98;;;;;;;;;;4887796;29;20041;-79
2022/07/31 14:03:21;;;;;;;2.30;2.10;;;;;;;;;;4861922;29;20112;-81
2022/07/31 14:05:47;;;;;;;4.18;2.05;;;;;;;;;;4876010;29;20161;-79
2022/07/31 14:08:13;;;;;;;3.30;2.03;;;;;;;;;;4877330;29;20140;-78
2022/07/31 14:10:39;;;;;;;2.60;2.40;;;;;;;;;;4876951;29;20049;-80
2022/07/31 14:13:05;;;;;;;3.00;2.30;;;;;;;;;;4877324;29;20553;-80
2022/07/31 14:15:31;;;;;;;3.17;2.15;;;;;;;;;;4860137;29;20052;-77
2022/07/31 14:17:57;;;;;;;4.28;1.90;;;;;;;;;;4860445;29;20048;-80
2022/07/31 14:20:23;;;;;;;3.47;2.20;;;;;;;;;;4875727;29;20048;-79
2022/07/31 14:22:49;;;;;;;5.13;2.25;;;;;;;;;;4875433;29;20048;-80
2022/07/31 14:25:15;;;;;;;3.67;2.03;;;;;;;;;;4877084;29;20128;-79
2022/07/31 14:27:43;;;;;;;2.45;2.08;;;;;;;;;;4859796;29;20120;-80
2022/07/31 14:30:09;;;;;;;5.03;2.13;;;;;;;;;;4875584;29;20052;-78
2022/07/31 14:32:35;;;;;;;2.78;1.90;;;;;;;;;;4876600;29;20132;-80
2022/07/31 14:35:01;;;;;;;5.28;2.47;;;;;;;;;;4876954;29;20125;-80
2022/07/31 14:37:27;;;;;;;2.10;2.00;;;;;;;;;;4876541;29;20710;-79
2022/07/31 14:39:52;;;;;;;7.88;2.30;;;;;;;;;;4844418;29;20040;-80
2022/07/31 14:42:19;;;;;;;3.22;2.17;;;;;;;;;;4876783;29;20474;-80
2022/07/31 14:44:45;;;;;;;4.55;1.98;;;;;;;;;;4876340;29;20033;-80
2022/07/31 14:47:11;;;;;;;6.35;2.40;;;;;;;;;;4876697;29;20184;-79
2022/07/31 14:49:37;;;;;;;5.03;2.38;;;;;;;;;;4859269;29;20051;-80
2022/07/31 14:52:03;;;;;;;3.75;2.08;;;;;;;;;;4859928;29;20111;-80
2022/07/31 14:54:30;;;;;;;5.13;2.20;;;;;;;;;;4876043;29;20513;-80
2022/07/31 14:56:57;;;;;;;2.85;2.10;;;;;;;;;;4876548;29;20602;-81
2022/07/31 14:59:23;;;;;;;4.95;2.30;;;;;;;;;;4876350;29;20048;-80